Time;durP1;ratioP1;P1;durP2;ratioP2;P2;SDS_P1;SDS_P2;PMS_P1;PMS_P2;Temp;Humidity;BMP_temperature;BMP_pressure;BME280_temperature;BME280_humidity;BME280_pressure;Samples;Min_cycle;Max_cycle;Signal;HPM_P1;HPM_P2
2022/10/16 00:01:58;;;;;;;1.25;0.55;;;15.40;99.90;;;;;;5062633;28;20025;-88
2022/10/16 00:04:23;;;;;;;0.80;0.80;;;15.50;99.90;;;;;;5063641;28;20465;-88
2022/10/16 00:06:49;;;;;;;0.60;0.60;;;15.40;99.90;;;;;;5064326;28;20024;-88
2022/10/16 00:09:14;;;;;;;0.60;0.60;;;15.30;99.90;;;;;;5067455;28;20025;-89
2022/10/16 00:11:41;;;;;;;0.50;0.50;;;15.20;99.90;;;;;;5065029;28;20060;-88
2022/10/16 00:14:13;;;;;;;1.10;0.90;;;15.20;99.90;;;;;;5064798;28;20479;-88
2022/10/16 00:16:39;;;;;;;1.20;0.88;;;15.10;99.90;;;;;;5069623;28;20566;-88
2022/10/16 00:19:05;;;;;;;2.35;0.60;;;15.10;99.90;;;;;;5057556;28;20111;-89
2022/10/16 00:21:31;;;;;;;1.35;0.70;;;15.00;99.90;;;;;;5047917;28;20120;-88
2022/10/16 00:24:01;;;;;;;2.05;0.77;;;15.00;99.90;;;;;;5066367;28;20481;-88
2022/10/16 00:26:28;;;;;;;0.40;0.40;;;15.00;99.90;;;;;;5070424;28;20373;-88
2022/10/16 00:28:53;;;;;;;1.52;0.70;;;14.90;99.90;;;;;;5061757;28;20109;-87
2022/10/16 00:31:21;;;;;;;4.63;0.70;;;14.90;99.90;;;;;;5060220;28;20107;-88
2022/10/16 00:33:47;;;;;;;0.70;0.70;;;14.90;99.90;;;;;;5069362;28;20044;-88
2022/10/16 00:36:16;;;;;;;1.35;0.75;;;14.90;99.90;;;;;;5060894;28;20037;-88
2022/10/16 00:38:42;;;;;;;0.60;0.60;;;14.90;99.90;;;;;;5060264;28;20256;-87
2022/10/16 00:41:12;;;;;;;0.70;0.70;;;14.80;99.90;;;;;;5063406;28;20090;-88
2022/10/16 00:43:44;;;;;;;1.27;0.88;;;14.80;99.90;;;;;;5068390;28;20021;-87
2022/10/16 00:46:22;;;;;;;1.00;0.80;;;14.80;99.90;;;;;;5053228;28;20044;-88
2022/10/16 00:49:12;;;;;;;8.45;0.85;;;14.80;99.90;;;;;;5067321;28;20074;-88
2022/10/16 00:51:43;;;;;;;3.45;0.65;;;14.70;99.90;;;;;;5058722;28;20431;-89
2022/10/16 00:54:14;;;;;;;0.80;0.70;;;14.60;99.90;;;;;;5062763;28;20044;-89
2022/10/16 00:56:41;;;;;;;1.90;0.70;;;14.60;99.90;;;;;;5060099;28;20036;-89
2022/10/16 00:59:14;;;;;;;3.35;1.25;;;14.50;99.90;;;;;;5065372;28;20032;-88
2022/10/16 01:01:40;;;;;;;5.30;0.60;;;14.40;99.90;;;;;;5067058;28;20056;-89
2022/10/16 01:04:06;;;;;;;1.52;0.82;;;14.40;99.90;;;;;;5061986;28;20490;-89
2022/10/16 01:07:06;;;;;;;1.75;1.00;;;14.40;99.90;;;;;;5066591;28;20063;-88
2022/10/16 01:09:55;;;;;;;0.63;0.63;;;14.30;99.90;;;;;;5042553;28;20025;-88
2022/10/16 01:12:39;;;;;;;0.85;0.82;;;14.20;99.90;;;;;;5066030;28;20025;-88
2022/10/16 01:15:18;;;;;;;3.47;0.70;;;14.20;99.90;;;;;;5065402;28;20064;-89
2022/10/16 01:18:00;;;;;;;1.10;0.90;;;14.20;99.90;;;;;;5062740;28;20024;-88
2022/10/16 01:20:50;;;;;;;3.17;0.90;;;14.20;99.90;;;;;;5062242;28;20122;-89
2022/10/16 01:23:24;;;;;;;2.53;0.80;;;14.10;99.90;;;;;;5064391;28;20032;-88
2022/10/16 01:25:59;;;;;;;0.70;0.70;;;14.10;99.90;;;;;;5061947;28;20424;-89
2022/10/16 01:28:31;;;;;;;0.80;0.75;;;14.10;99.90;;;;;;5047526;28;20057;-88
2022/10/16 01:30:59;;;;;;;1.58;0.90;;;14.10;99.90;;;;;;5062326;28;20508;-89
2022/10/16 01:33:31;;;;;;;4.00;0.82;;;14.10;99.90;;;;;;5066588;28;20059;-88
2022/10/16 01:36:06;;;;;;;2.28;0.80;;;14.20;99.90;;;;;;5066230;28;20550;-88
2022/10/16 01:38:36;;;;;;;5.77;1.00;;;14.20;99.90;;;;;;5039033;28;20028;-88
2022/10/16 01:41:24;;;;;;;0.88;0.73;;;14.20;99.90;;;;;;5061393;28;20286;-89
2022/10/16 01:43:58;;;;;;;0.88;0.70;;;14.20;99.90;;;;;;5044798;28;20114;-88
2022/10/16 01:46:26;;;;;;;0.60;0.60;;;14.20;99.90;;;;;;5070001;28;20040;-88
2022/10/16 01:48:52;;;;;;;1.02;0.90;;;14.30;99.90;;;;;;5062344;28;20021;-89
2022/10/16 01:51:20;;;;;;;1.85;0.75;;;14.20;99.90;;;;;;5057620;28;20040;-88
2022/10/16 01:53:51;;;;;;;1.95;0.93;;;14.20;99.90;;;;;;5067430;28;20021;-88
2022/10/16 01:56:20;;;;;;;1.05;0.82;;;14.20;99.90;;;;;;5065953;28;20044;-88
2022/10/16 01:59:20;;;;;;;2.88;0.80;;;14.30;99.90;;;;;;5062190;28;20033;-89
2022/10/16 02:01:55;;;;;;;3.42;0.73;;;14.30;99.90;;;;;;5022452;28;20040;-89
2022/10/16 02:04:27;;;;;;;0.85;0.80;;;14.30;99.90;;;;;;5067707;28;20048;-89
2022/10/16 02:06:54;;;;;;;0.52;0.52;;;14.30;99.90;;;;;;5066828;28;20036;-89
2022/10/16 02:09:20;;;;;;;0.80;0.80;;;14.30;99.90;;;;;;5060637;28;20056;-89
2022/10/16 02:11:46;;;;;;;2.05;0.90;;;14.30;99.90;;;;;;5053977;28;20071;-89
2022/10/16 02:14:11;;;;;;;0.70;0.60;;;14.40;99.90;;;;;;5061338;28;20051;-89
2022/10/16 02:16:41;;;;;;;0.65;0.65;;;14.40;99.90;;;;;;5065955;28;20033;-89
2022/10/16 02:19:07;;;;;;;0.60;0.60;;;14.40;99.90;;;;;;5064611;28;20025;-89
2022/10/16 02:21:38;;;;;;;0.68;0.68;;;14.40;99.90;;;;;;5059432;28;20474;-88
2022/10/16 02:24:19;;;;;;;0.80;0.80;;;14.40;99.90;;;;;;5069467;28;20032;-88
2022/10/16 02:26:55;;;;;;;2.67;1.25;;;14.40;99.90;;;;;;5058498;28;20025;-89
2022/10/16 02:29:25;;;;;;;1.90;0.65;;;14.50;99.90;;;;;;5066342;28;20040;-89
2022/10/16 02:31:56;;;;;;;0.70;0.70;;;14.50;99.90;;;;;;5052638;28;20095;-89
2022/10/16 02:34:24;;;;;;;1.58;0.80;;;14.50;99.90;;;;;;5069477;28;20070;-88
2022/10/16 02:36:51;;;;;;;1.40;0.80;;;14.50;99.90;;;;;;5054711;28;20036;-89
2022/10/16 02:39:18;;;;;;;9.93;1.33;;;14.50;99.90;;;;;;5045952;28;20473;-87
2022/10/16 02:41:43;;;;;;;3.92;0.90;;;14.50;99.90;;;;;;5058721;28;20028;-89
2022/10/16 02:44:09;;;;;;;0.63;0.63;;;14.50;99.90;;;;;;5060971;28;20039;-89
2022/10/16 02:46:34;;;;;;;0.98;0.98;;;14.50;99.90;;;;;;5067201;28;20025;-89
2022/10/16 02:49:00;;;;;;;1.35;0.60;;;14.50;99.90;;;;;;5058176;28;20052;-88
2022/10/16 02:51:26;;;;;;;0.60;0.60;;;14.50;99.90;;;;;;5064968;28;20029;-89
2022/10/16 02:53:51;;;;;;;0.82;0.82;;;14.50;99.90;;;;;;5064156;28;20024;-89
2022/10/16 02:56:17;;;;;;;5.82;1.13;;;14.40;99.90;;;;;;5067111;28;20082;-89
2022/10/16 02:58:42;;;;;;;1.08;0.88;;;14.40;99.90;;;;;;5046415;28;20033;-89
2022/10/16 03:01:08;;;;;;;1.88;0.80;;;14.40;99.90;;;;;;5055993;28;20036;-89
2022/10/16 03:03:34;;;;;;;1.08;1.02;;;14.50;99.90;;;;;;5066321;28;20032;-89
2022/10/16 03:05:59;;;;;;;0.82;0.70;;;14.50;99.90;;;;;;5064281;28;20037;-89
2022/10/16 03:08:26;;;;;;;1.60;0.60;;;14.40;99.90;;;;;;5068074;28;20127;-88
2022/10/16 03:10:52;;;;;;;0.70;0.70;;;14.40;99.90;;;;;;5050119;28;20090;-88
2022/10/16 03:13:20;;;;;;;0.98;0.82;;;14.40;99.90;;;;;;5060063;28;20040;-88
2022/10/16 03:15:46;;;;;;;3.50;0.85;;;14.30;99.90;;;;;;5066379;28;20029;-89
2022/10/16 03:18:11;;;;;;;1.02;1.00;;;14.30;99.90;;;;;;5068363;28;20103;-89
2022/10/16 03:20:37;;;;;;;8.77;0.98;;;14.30;99.90;;;;;;5058666;28;20134;-88
2022/10/16 03:23:03;;;;;;;0.75;0.75;;;14.30;99.90;;;;;;5069252;28;20030;-89
2022/10/16 03:25:29;;;;;;;1.50;0.98;;;14.20;99.90;;;;;;5065058;28;20448;-89
2022/10/16 03:27:55;;;;;;;2.17;1.08;;;14.20;99.90;;;;;;5065953;28;20021;-88
2022/10/16 03:30:20;;;;;;;0.68;0.68;;;14.20;99.90;;;;;;5057635;28;20730;-88
2022/10/16 03:32:46;;;;;;;1.27;1.17;;;14.20;99.90;;;;;;5064184;28;20025;-89
2022/10/16 03:35:12;;;;;;;1.75;1.10;;;14.10;99.90;;;;;;5069257;28;20060;-88
2022/10/16 03:37:38;;;;;;;4.07;1.52;;;14.10;99.90;;;;;;5067173;28;20025;-88
2022/10/16 03:40:04;;;;;;;2.70;1.33;;;14.20;99.90;;;;;;5056435;28;20033;-88
2022/10/16 03:42:32;;;;;;;5.38;1.40;;;14.10;99.90;;;;;;5061062;28;20037;-89
2022/10/16 03:44:57;;;;;;;2.08;1.13;;;14.10;99.90;;;;;;5064209;28;20397;-88
2022/10/16 03:47:42;;;;;;;5.25;1.63;;;14.20;99.90;;;;;;5050536;28;20036;-88
2022/10/16 03:50:12;;;;;;;1.30;1.20;;;14.20;99.90;;;;;;5061138;28;20032;-87
2022/10/16 03:52:53;;;;;;;6.45;2.00;;;14.30;99.90;;;;;;5055831;28;20037;-88
2022/10/16 03:55:31;;;;;;;6.85;1.58;;;14.40;99.90;;;;;;5059140;28;20048;-89
2022/10/16 03:58:39;;;;;;;4.68;1.40;;;14.50;99.90;;;;;;5069813;28;20033;-89
2022/10/16 04:01:24;;;;;;;2.70;1.52;;;14.60;99.90;;;;;;5057006;28;20048;-89
2022/10/16 04:03:54;;;;;;;;;;;14.60;99.90;;;;;;5058663;28;20433;-88
2022/10/16 04:06:29;;;;;;;3.58;1.20;;;14.70;99.90;;;;;;5056631;28;20071;-88
2022/10/16 04:08:56;;;;;;;1.55;1.13;;;14.70;99.90;;;;;;5052458;28;20390;-89
2022/10/16 04:11:21;;;;;;;1.20;1.13;;;14.70;99.90;;;;;;5058599;28;20469;-89
2022/10/16 04:13:49;;;;;;;2.65;1.20;;;14.70;99.90;;;;;;5059306;28;20032;-89
2022/10/16 04:16:38;;;;;;;5.75;1.20;;;14.70;99.90;;;;;;5063310;28;20045;-89
2022/10/16 04:19:03;;;;;;;4.13;1.40;;;14.70;99.90;;;;;;5053225;28;20020;-89
2022/10/16 04:21:36;;;;;;;2.78;1.35;;;14.80;99.90;;;;;;5056468;28;20074;-89
2022/10/16 04:24:04;;;;;;;2.45;0.98;;;14.80;99.90;;;;;;5063500;28;20473;-89
2022/10/16 04:26:30;;;;;;;6.28;1.40;;;14.80;99.90;;;;;;5058717;28;20036;-89
2022/10/16 04:29:01;;;;;;;3.65;1.30;;;14.80;99.90;;;;;;5055847;28;20432;-88
2022/10/16 04:31:42;;;;;;;1.38;1.10;;;14.80;99.90;;;;;;5054382;28;20435;-90
2022/10/16 04:37:45;;;;;;;1.65;1.25;;;14.80;99.90;;;;;;4924525;28;20549;-89
2022/10/16 04:40:10;;;;;;;1.63;1.00;;;14.70;99.90;;;;;;4990864;28;20140;-89
2022/10/16 04:42:36;;;;;;;6.38;1.10;;;14.70;99.90;;;;;;5055272;28;20029;-87
2022/10/16 04:45:02;;;;;;;2.88;1.17;;;14.70;99.90;;;;;;5068631;28;20113;-89
2022/10/16 04:47:31;;;;;;;1.27;1.20;;;14.60;99.90;;;;;;5061252;28;20044;-89
2022/10/16 04:50:01;;;;;;;3.33;0.95;;;14.60;99.90;;;;;;5054003;28;20385;-88
2022/10/16 04:52:31;;;;;;;2.03;1.42;;;14.50;99.90;;;;;;5050019;28;20032;-89
2022/10/16 04:55:01;;;;;;;3.50;1.00;;;14.50;99.90;;;;;;5043606;28;20056;-89
2022/10/16 04:57:26;;;;;;;2.22;1.02;;;14.40;99.90;;;;;;5070852;28;20045;-89
2022/10/16 04:59:52;;;;;;;1.35;1.25;;;14.30;99.90;;;;;;5055610;28;20126;-89
2022/10/16 05:02:18;;;;;;;1.95;1.20;;;14.30;99.90;;;;;;5061002;28;21153;-89
2022/10/16 05:04:43;;;;;;;3.67;1.30;;;14.30;99.90;;;;;;5053604;28;20037;-89
2022/10/16 05:07:09;;;;;;;1.40;1.30;;;14.20;99.90;;;;;;5057834;28;20033;-89
2022/10/16 05:09:35;;;;;;;4.43;1.25;;;14.20;99.90;;;;;;5045349;28;20032;-88
2022/10/16 05:12:00;;;;;;;2.22;1.23;;;14.30;99.90;;;;;;5067394;28;20054;-88
2022/10/16 05:14:26;;;;;;;1.73;1.30;;;14.20;99.90;;;;;;5045177;28;20035;-88
2022/10/16 05:16:52;;;;;;;5.22;1.50;;;14.20;99.90;;;;;;5048808;28;20063;-89
2022/10/16 05:19:17;;;;;;;1.65;1.48;;;14.30;99.90;;;;;;5055286;28;20047;-90
2022/10/16 05:21:43;;;;;;;1.75;1.40;;;14.30;99.90;;;;;;5044682;28;20043;-87
2022/10/16 05:24:09;;;;;;;2.67;1.45;;;14.30;99.90;;;;;;5043265;28;20025;-89
2022/10/16 05:26:34;;;;;;;1.50;1.35;;;14.40;99.90;;;;;;5047136;28;20056;-89
2022/10/16 05:29:00;;;;;;;2.17;1.10;;;14.40;99.90;;;;;;5048929;28;20039;-90
2022/10/16 05:31:26;;;;;;;6.15;1.85;;;14.40;99.90;;;;;;5047957;28;20031;-89
2022/10/16 05:33:52;;;;;;;1.30;1.25;;;14.40;99.90;;;;;;5048976;28;20032;-89
2022/10/16 05:36:18;;;;;;;2.15;1.20;;;14.50;99.90;;;;;;5049155;28;20036;-85
2022/10/16 05:38:43;;;;;;;3.20;1.60;;;14.50;99.90;;;;;;5045476;28;20025;-89
2022/10/16 05:41:09;;;;;;;1.45;1.20;;;14.50;99.90;;;;;;5051485;28;20031;-89
2022/10/16 05:43:35;;;;;;;2.03;1.17;;;14.50;99.90;;;;;;5064863;28;20465;-89
2022/10/16 05:46:04;;;;;;;6.38;2.05;;;14.50;99.90;;;;;;5053289;28;20083;-89
2022/10/16 05:48:31;;;;;;;4.45;1.48;;;14.50;99.90;;;;;;5043409;28;20041;-88
2022/10/16 05:51:06;;;;;;;3.97;1.92;;;14.50;99.90;;;;;;5053006;28;20025;-89
2022/10/16 05:53:34;;;;;;;10.05;2.03;;;14.60;99.90;;;;;;5042642;28;20024;-88
2022/10/16 05:55:59;;;;;;;7.35;1.60;;;14.60;99.90;;;;;;5064061;28;20032;-87
2022/10/16 05:58:29;;;;;;;2.92;1.50;;;14.70;99.90;;;;;;5061637;28;20081;-86
2022/10/16 06:01:06;;;;;;;3.55;2.17;;;14.70;99.90;;;;;;5067714;28;20043;-87
2022/10/16 06:03:32;;;;;;;1.83;1.40;;;14.90;99.90;;;;;;5062226;28;20029;-89
2022/10/16 06:05:59;;;;;;;3.20;1.40;;;14.80;99.90;;;;;;5066633;28;20045;-87
2022/10/16 06:08:24;;;;;;;3.45;1.27;;;14.90;99.90;;;;;;5064500;28;20496;-88
2022/10/16 06:11:02;;;;;;;3.40;1.63;;;14.90;99.90;;;;;;5037563;28;20044;-88
2022/10/16 06:13:28;;;;;;;7.40;1.40;;;14.90;99.90;;;;;;5052571;28;20029;-87
2022/10/16 06:15:56;;;;;;;1.65;1.13;;;14.90;99.90;;;;;;5052394;28;20032;-88
2022/10/16 06:18:22;;;;;;;2.35;1.65;;;14.90;99.90;;;;;;5058868;28;20025;-88
2022/10/16 06:20:48;;;;;;;1.58;1.48;;;14.90;99.90;;;;;;5060550;28;20025;-88
2022/10/16 06:23:13;;;;;;;2.42;1.60;;;14.90;99.90;;;;;;5063197;28;20036;-88
2022/10/16 06:25:39;;;;;;;7.53;1.33;;;14.90;99.90;;;;;;5062574;28;20033;-88
2022/10/16 06:28:04;;;;;;;6.47;1.05;;;15.00;99.90;;;;;;5063717;28;20036;-88
2022/10/16 06:30:31;;;;;;;1.83;1.17;;;15.00;99.90;;;;;;5070767;28;20477;-88
2022/10/16 06:32:57;;;;;;;3.65;1.33;;;15.00;99.90;;;;;;5063194;28;20029;-88
2022/10/16 06:35:23;;;;;;;2.95;1.30;;;15.10;99.90;;;;;;5064247;28;20091;-88
2022/10/16 06:37:49;;;;;;;5.47;1.38;;;15.00;99.90;;;;;;5060438;28;20059;-88
2022/10/16 06:40:15;;;;;;;1.10;1.00;;;15.10;99.90;;;;;;5074149;28;20025;-88
2022/10/16 06:42:41;;;;;;;3.00;1.10;;;15.00;99.90;;;;;;5069746;28;20035;-89
2022/10/16 06:45:07;;;;;;;3.10;1.30;;;15.00;99.90;;;;;;5070641;28;20033;-87
2022/10/16 06:47:33;;;;;;;2.03;1.40;;;15.00;99.90;;;;;;5066560;28;20028;-88
2022/10/16 06:49:58;;;;;;;3.80;1.42;;;15.10;99.90;;;;;;5064238;28;20119;-88
2022/10/16 06:52:37;;;;;;;4.95;1.27;;;15.10;99.90;;;;;;5057803;28;20029;-85
2022/10/16 06:55:03;;;;;;;2.15;1.20;;;15.20;99.90;;;;;;5053326;28;20131;-85
2022/10/16 06:57:29;;;;;;;1.02;1.02;;;15.30;99.90;;;;;;5053847;28;20556;-88
2022/10/16 06:59:55;;;;;;;5.45;1.00;;;15.40;99.90;;;;;;5058668;28;20174;-87
2022/10/16 07:02:22;;;;;;;1.63;1.00;;;15.40;99.90;;;;;;5068742;28;20465;-89
2022/10/16 07:04:47;;;;;;;1.75;0.90;;;15.30;99.90;;;;;;5069452;28;20029;-86
2022/10/16 07:07:13;;;;;;;2.65;1.27;;;15.40;99.90;;;;;;5055226;28;20028;-88
2022/10/16 07:09:40;;;;;;;2.63;1.35;;;15.40;99.90;;;;;;5066040;28;20119;-89
2022/10/16 07:12:05;;;;;;;4.05;1.10;;;15.40;99.90;;;;;;5060983;28;20070;-88
2022/10/16 07:14:31;;;;;;;1.38;1.27;;;15.40;99.90;;;;;;5067822;28;20025;-88
2022/10/16 07:16:57;;;;;;;1.42;1.00;;;15.40;99.90;;;;;;5065255;28;20025;-88
2022/10/16 07:19:23;;;;;;;1.08;1.00;;;15.50;99.90;;;;;;5054405;28;20119;-88
2022/10/16 07:21:49;;;;;;;1.95;0.75;;;15.50;99.90;;;;;;5068732;28;20028;-88
2022/10/16 07:24:16;;;;;;;7.28;1.33;;;15.50;99.90;;;;;;5066129;28;20040;-88
2022/10/16 07:26:44;;;;;;;1.27;1.17;;;15.60;99.90;;;;;;5043646;28;20055;-88
2022/10/16 07:29:17;;;;;;;1.50;0.85;;;15.60;99.90;;;;;;5047703;28;20036;-87
2022/10/16 07:31:44;;;;;;;3.22;0.98;;;15.60;99.90;;;;;;5054832;28;20029;-88
2022/10/16 07:34:11;;;;;;;5.75;0.95;;;15.60;99.90;;;;;;5064366;28;20534;-89
2022/10/16 07:36:37;;;;;;;2.47;1.45;;;15.60;99.90;;;;;;5063307;28;20035;-88
2022/10/16 07:39:04;;;;;;;3.75;1.27;;;15.60;99.90;;;;;;5047741;28;20020;-88
2022/10/16 07:41:30;;;;;;;4.00;1.02;;;15.70;99.90;;;;;;5059897;28;20075;-88
2022/10/16 07:43:59;;;;;;;4.88;0.90;;;15.70;99.90;;;;;;5055481;28;20400;-88
2022/10/16 07:46:25;;;;;;;5.68;1.02;;;15.80;99.90;;;;;;5060999;28;20097;-88
2022/10/16 07:48:51;;;;;;;1.17;1.00;;;15.80;99.90;;;;;;5057363;28;20469;-88
2022/10/16 07:51:20;;;;;;;2.25;0.90;;;15.80;99.90;;;;;;5051446;28;20031;-88
2022/10/16 07:53:46;;;;;;;2.55;0.70;;;15.90;99.90;;;;;;5053215;28;20059;-89
2022/10/16 07:56:12;;;;;;;2.20;1.17;;;15.80;99.90;;;;;;5049909;28;20108;-89
2022/10/16 07:58:38;;;;;;;2.03;0.77;;;15.80;99.90;;;;;;5065905;28;20100;-89
2022/10/16 08:01:09;;;;;;;2.13;0.90;;;15.80;99.90;;;;;;5028289;28;20119;-89
2022/10/16 08:03:35;;;;;;;1.42;1.00;;;15.80;99.90;;;;;;5048182;28;20444;-87
2022/10/16 08:06:02;;;;;;;2.38;1.30;;;15.90;99.90;;;;;;5058037;28;20373;-88
2022/10/16 08:08:29;;;;;;;1.40;1.23;;;16.00;99.90;;;;;;5045112;28;20528;-87
2022/10/16 08:10:54;;;;;;;1.85;0.85;;;16.00;99.90;;;;;;5059645;28;20025;-88
2022/10/16 08:13:20;;;;;;;4.15;1.15;;;16.00;99.90;;;;;;5060945;28;20800;-88
2022/10/16 08:15:46;;;;;;;1.48;1.20;;;16.10;99.90;;;;;;5067947;28;20101;-89
2022/10/16 08:18:13;;;;;;;1.27;1.10;;;16.10;99.90;;;;;;5063184;28;20021;-88
2022/10/16 08:20:40;;;;;;;5.57;1.20;;;16.10;99.90;;;;;;5067705;28;20033;-89
2022/10/16 08:23:06;;;;;;;4.82;0.93;;;16.10;99.90;;;;;;5069131;28;20039;-88
2022/10/16 08:25:36;;;;;;;3.75;0.80;;;16.10;99.90;;;;;;5059612;28;20068;-88
2022/10/16 08:28:05;;;;;;;1.08;1.02;;;16.20;99.90;;;;;;5052630;28;20163;-88
2022/10/16 08:30:31;;;;;;;2.40;1.20;;;16.20;99.90;;;;;;5064988;28;20048;-87
2022/10/16 08:32:57;;;;;;;1.50;1.10;;;16.30;99.90;;;;;;5064760;28;20497;-89
2022/10/16 08:35:23;;;;;;;1.30;0.95;;;16.30;99.90;;;;;;5067208;28;20108;-87
2022/10/16 08:37:49;;;;;;;4.43;1.92;;;16.30;99.90;;;;;;5070191;28;20077;-88
2022/10/16 08:40:17;;;;;;;6.50;1.20;;;16.20;99.90;;;;;;5052080;28;20125;-88
2022/10/16 08:43:27;;;;;;;8.77;1.10;;;16.30;99.90;;;;;;5063902;28;20029;-87
2022/10/16 08:46:30;;;;;;;3.35;1.20;;;16.30;99.90;;;;;;5056372;28;20041;-87
2022/10/16 08:48:59;;;;;;;1.30;0.80;;;16.30;99.90;;;;;;5059828;28;20053;-88
2022/10/16 08:51:31;;;;;;;3.40;1.02;;;16.30;99.90;;;;;;5069479;28;20037;-88
2022/10/16 08:54:06;;;;;;;3.17;1.33;;;16.30;99.90;;;;;;5068276;28;20067;-88
2022/10/16 08:56:33;;;;;;;1.63;1.17;;;16.20;99.90;;;;;;5065283;28;20082;-85
2022/10/16 08:58:59;;;;;;;0.85;0.80;;;16.30;99.90;;;;;;5064298;28;20097;-89
2022/10/16 09:01:38;;;;;;;1.65;1.10;;;16.30;99.90;;;;;;5061286;28;20086;-88
2022/10/16 09:04:27;;;;;;;1.30;0.75;;;16.30;99.90;;;;;;5061361;28;20404;-87
2022/10/16 09:07:16;;;;;;;7.65;1.00;;;16.40;99.90;;;;;;5053999;28;20158;-88
2022/10/16 09:10:00;;;;;;;4.00;1.00;;;16.40;99.90;;;;;;5053191;28;20036;-88
2022/10/16 09:12:40;;;;;;;4.00;0.93;;;16.40;99.90;;;;;;5069249;28;20029;-86
2022/10/16 09:15:25;;;;;;;2.53;0.98;;;16.50;99.90;;;;;;5064890;28;20016;-88
2022/10/16 09:18:05;;;;;;;2.30;1.27;;;16.40;99.90;;;;;;5040156;28;20035;-88
2022/10/16 09:20:36;;;;;;;3.00;1.10;;;16.50;99.90;;;;;;5057763;28;20280;-90
2022/10/16 09:23:05;;;;;;;1.40;0.80;;;16.50;99.90;;;;;;5055204;28;20112;-88
2022/10/16 09:25:32;;;;;;;2.05;0.90;;;16.60;99.90;;;;;;5063724;28;20036;-87
2022/10/16 09:27:58;;;;;;;1.00;0.90;;;16.70;99.90;;;;;;5069129;28;20500;-88
2022/10/16 09:30:28;;;;;;;2.63;1.00;;;16.70;99.90;;;;;;5041402;28;20028;-88
2022/10/16 09:32:57;;;;;;;1.92;0.85;;;16.70;99.90;;;;;;5060910;28;20044;-88
2022/10/16 09:35:31;;;;;;;4.07;0.80;;;16.70;99.90;;;;;;5056794;28;20135;-90
2022/10/16 09:37:57;;;;;;;1.07;0.60;;;16.70;99.90;;;;;;5027944;28;20087;-89
2022/10/16 09:40:29;;;;;;;1.33;0.57;;;16.70;99.90;;;;;;5063318;28;20025;-86
2022/10/16 09:43:14;;;;;;;0.93;0.77;;;16.70;99.90;;;;;;5060304;28;20028;-88
2022/10/16 09:45:39;;;;;;;0.85;0.85;;;16.80;99.90;;;;;;5031104;28;20429;-90
2022/10/16 09:48:18;;;;;;;0.90;0.60;;;16.80;99.90;;;;;;5051146;28;20058;-87
2022/10/16 09:50:43;;;;;;;6.50;0.60;;;16.80;99.90;;;;;;5066099;28;20059;-87
2022/10/16 09:53:13;;;;;;;1.67;0.75;;;17.00;99.90;;;;;;5066381;28;20545;-88
2022/10/16 09:55:50;;;;;;;0.90;0.77;;;17.00;99.90;;;;;;5059995;28;20037;-90
2022/10/16 09:58:16;;;;;;;1.70;0.55;;;17.00;99.90;;;;;;5062829;28;20103;-90
2022/10/16 10:00:48;;;;;;;2.13;0.93;;;17.00;99.90;;;;;;5067478;28;20450;-89
2022/10/16 10:03:34;;;;;;;0.95;0.60;;;17.10;99.90;;;;;;5047427;28;20021;-88
2022/10/16 10:06:06;;;;;;;0.73;0.73;;;17.10;99.90;;;;;;5058901;28;20045;-90
2022/10/16 10:08:38;;;;;;;0.65;0.65;;;17.10;99.90;;;;;;5047004;28;20096;-90
2022/10/16 10:11:04;;;;;;;3.22;0.85;;;17.10;99.90;;;;;;5049348;28;20025;-88
2022/10/16 10:13:30;;;;;;;0.60;0.60;;;17.10;99.90;;;;;;5049686;28;20112;-86
2022/10/16 10:15:55;;;;;;;4.15;0.60;;;17.10;99.90;;;;;;5051023;28;20121;-90
2022/10/16 10:18:23;;;;;;;0.60;0.60;;;17.20;99.90;;;;;;5054064;28;20047;-89
2022/10/16 10:21:00;;;;;;;1.35;0.75;;;17.40;99.90;;;;;;5054296;28;20032;-87
2022/10/16 10:23:29;;;;;;;0.40;0.40;;;17.60;99.90;;;;;;5053987;28;20083;-87
2022/10/16 10:26:20;;;;;;;0.45;0.45;;;17.70;99.90;;;;;;5053853;28;20047;-88
2022/10/16 10:29:03;;;;;;;1.33;0.60;;;17.80;99.90;;;;;;5053474;28;20521;-86
2022/10/16 10:31:46;;;;;;;1.73;0.70;;;17.80;99.90;;;;;;5054051;28;20033;-90
2022/10/16 10:34:30;;;;;;;1.80;0.80;;;18.00;99.90;;;;;;5053657;28;20407;-86
2022/10/16 10:37:26;;;;;;;0.60;0.47;;;18.00;99.90;;;;;;5054013;28;20032;-89
2022/10/16 10:40:11;;;;;;;5.40;0.80;;;18.00;99.90;;;;;;5045988;28;20044;-89
2022/10/16 10:43:08;;;;;;;2.45;0.77;;;18.10;99.90;;;;;;5053746;28;20060;-89
2022/10/16 10:45:38;;;;;;;2.45;0.73;;;18.00;99.90;;;;;;5053471;28;20033;-92
2022/10/16 10:48:32;;;;;;;1.10;0.65;;;18.00;99.90;;;;;;5053571;28;20033;-85
2022/10/16 10:51:21;;;;;;;1.33;0.45;;;18.20;99.90;;;;;;5015666;28;20041;-85
2022/10/16 10:53:58;;;;;;;0.60;0.60;;;18.40;99.90;;;;;;5053554;28;20032;-88
2022/10/16 10:56:29;;;;;;;0.40;0.40;;;18.40;99.90;;;;;;5053649;28;20355;-88
2022/10/16 10:59:14;;;;;;;2.20;0.70;;;18.40;99.90;;;;;;5052651;28;20033;-88
2022/10/16 11:01:58;;;;;;;0.55;0.52;;;18.50;99.90;;;;;;5051928;28;20036;-88
2022/10/16 11:04:50;;;;;;;3.47;0.63;;;18.50;99.90;;;;;;5052512;28;20061;-88
2022/10/16 11:07:21;;;;;;;1.02;0.60;;;18.40;99.90;;;;;;5042596;28;20017;-87
2022/10/16 11:09:59;;;;;;;1.52;0.47;;;18.40;99.90;;;;;;5053050;28;20029;-88
2022/10/16 11:12:34;;;;;;;1.45;1.05;;;18.40;99.90;;;;;;5049627;28;20029;-87
2022/10/16 11:15:20;;;;;;;2.35;0.68;;;18.40;99.90;;;;;;5053016;28;20036;-86
2022/10/16 11:17:49;;;;;;;;;;;18.40;99.90;;;;;;5053349;28;20107;-86
2022/10/16 11:20:20;;;;;;;1.95;0.73;;;18.30;99.90;;;;;;5053023;28;19904;-87
2022/10/16 11:23:18;;;;;;;1.83;0.65;;;18.30;99.90;;;;;;5052623;28;20021;-86
2022/10/16 11:25:47;;;;;;;1.38;0.55;;;18.20;99.90;;;;;;5039279;28;20045;-90
2022/10/16 11:28:38;;;;;;;0.80;0.57;;;18.10;99.90;;;;;;5052810;28;20029;-88
2022/10/16 11:31:36;;;;;;;1.35;0.45;;;18.10;99.90;;;;;;5052758;28;20158;-86
2022/10/16 11:34:31;;;;;;;0.95;0.30;;;18.20;99.90;;;;;;5027219;28;20045;-88
2022/10/16 11:37:12;;;;;;;0.85;0.43;;;18.30;99.90;;;;;;5031820;28;20040;-87
2022/10/16 11:39:40;;;;;;;0.88;0.43;;;18.40;99.90;;;;;;5034512;28;20047;-87
2022/10/16 11:42:15;;;;;;;1.30;0.40;;;18.50;99.90;;;;;;5042706;28;20485;-88
2022/10/16 11:44:41;;;;;;;;;;;18.60;99.90;;;;;;5053077;28;20065;-87
2022/10/16 11:47:19;;;;;;;1.48;0.57;;;18.70;99.90;;;;;;5059001;28;20348;-87
2022/10/16 11:49:47;;;;;;;5.57;1.65;;;18.70;99.90;;;;;;5055599;28;20041;-88
2022/10/16 11:52:30;;;;;;;1.08;0.38;;;18.70;99.90;;;;;;5046098;28;20460;-88
2022/10/16 11:55:06;;;;;;;2.40;0.70;;;18.70;99.90;;;;;;5055346;28;20508;-89
2022/10/16 11:57:38;;;;;;;0.38;0.38;;;18.80;99.90;;;;;;5072206;28;20111;-90
2022/10/16 12:00:18;;;;;;;3.20;0.60;;;18.80;99.90;;;;;;5053987;28;20047;-86
2022/10/16 12:02:55;;;;;;;1.38;0.60;;;18.80;99.90;;;;;;5052279;28;20028;-88
2022/10/16 12:05:34;;;;;;;4.72;0.52;;;18.80;99.90;;;;;;5049798;28;20489;-85
2022/10/16 12:08:09;;;;;;;4.03;0.50;;;18.70;99.90;;;;;;5042047;28;20037;-88
2022/10/16 12:10:38;;;;;;;1.70;0.50;;;18.60;99.90;;;;;;5050263;28;20029;-87
2022/10/16 12:13:37;;;;;;;0.43;0.43;;;18.70;99.90;;;;;;5067536;28;20055;-86
2022/10/16 12:16:12;;;;;;;1.88;0.50;;;18.80;99.90;;;;;;5063399;28;20037;-87
2022/10/16 12:18:39;;;;;;;1.45;0.50;;;19.00;99.90;;;;;;5055605;28;20036;-88
2022/10/16 12:21:06;;;;;;;3.10;0.52;;;19.00;99.90;;;;;;5070323;28;20032;-89
2022/10/16 12:23:53;;;;;;;1.88;0.40;;;19.00;99.90;;;;;;5039292;28;20044;-87
2022/10/16 12:26:27;;;;;;;3.00;0.65;;;19.10;99.90;;;;;;5051237;28;20810;-88
2022/10/16 12:28:54;;;;;;;0.63;0.43;;;19.20;99.90;;;;;;5051598;28;20108;-87
2022/10/16 12:31:21;;;;;;;0.70;0.50;;;19.20;99.90;;;;;;5051702;28;20457;-87
2022/10/16 12:34:01;;;;;;;3.28;0.70;;;19.20;99.90;;;;;;5051681;28;20029;-89
2022/10/16 12:36:32;;;;;;;1.33;0.70;;;19.20;99.90;;;;;;5050113;28;20037;-90
2022/10/16 12:38:59;;;;;;;0.63;0.40;;;19.30;99.90;;;;;;5070833;28;20028;-88
2022/10/16 12:41:28;;;;;;;1.63;0.60;;;19.40;99.90;;;;;;5067093;28;20040;-88
2022/10/16 12:43:56;;;;;;;1.13;0.60;;;19.50;99.90;;;;;;5058021;28;20021;-88
2022/10/16 12:46:33;;;;;;;1.45;0.60;;;19.50;99.90;;;;;;5068855;28;20047;-88
2022/10/16 12:49:28;;;;;;;1.65;0.73;;;19.50;99.90;;;;;;5071286;28;20028;-89
2022/10/16 12:51:54;;;;;;;0.60;0.47;;;19.50;99.90;;;;;;5050810;28;20233;-86
2022/10/16 12:54:41;;;;;;;2.00;0.40;;;19.60;99.90;;;;;;5053433;28;20399;-87
2022/10/16 12:57:38;;;;;;;1.25;0.50;;;19.70;99.90;;;;;;5030932;28;20033;-87
2022/10/16 13:00:17;;;;;;;0.63;0.47;;;19.60;99.90;;;;;;5046408;28;20551;-88
2022/10/16 13:02:54;;;;;;;0.95;0.35;;;19.60;99.90;;;;;;5056913;28;20098;-86
2022/10/16 13:05:44;;;;;;;1.75;0.40;;;19.60;99.90;;;;;;5063028;28;20056;-86
2022/10/16 13:08:28;;;;;;;0.57;0.40;;;19.60;99.90;;;;;;5034961;28;20025;-86
2022/10/16 13:11:43;;;;;;;3.22;0.38;;;19.70;99.90;;;;;;5067611;28;20029;-88
2022/10/16 13:14:43;;;;;;;1.83;0.70;;;19.60;99.90;;;;;;5037116;28;20093;-88
2022/10/16 13:17:09;;;;;;;4.22;0.55;;;19.70;99.90;;;;;;5049043;28;20032;-89